sensor_id;sensor_type;location;lat;lon;timestamp;pressure;altitude;pressure_sealevel;temperature;humidity
23223;BME280;11780;13.904;100.620;2023-12-07T00:01:36;101295.63;;;30.20;nan
23223;BME280;11780;13.904;100.620;2023-12-07T00:04:07;101300.34;;;30.19;nan
23223;BME280;11780;13.904;100.620;2023-12-07T00:06:38;101300.34;;;30.19;nan
23223;BME280;11780;13.904;100.620;2023-12-07T00:09:08;101301.75;;;30.17;nan
23223;BME280;11780;13.904;100.620;2023-12-07T00:11:39;101309.41;;;30.20;nan
23223;BME280;11780;13.904;100.620;2023-12-07T00:14:11;101310.25;;;30.20;nan
23223;BME280;11780;13.904;100.620;2023-12-07T00:16:41;101307.78;;;30.19;nan
23223;BME280;11780;13.904;100.620;2023-12-07T00:19:12;101309.94;;;30.22;nan
23223;BME280;11780;13.904;100.620;2023-12-07T00:21:43;101312.69;;;30.22;nan
23223;BME280;11780;13.904;100.620;2023-12-07T00:24:14;101322.59;;;30.23;nan
23223;BME280;11780;13.904;100.620;2023-12-07T00:26:45;101323.72;;;30.22;nan
23223;BME280;11780;13.904;100.620;2023-12-07T00:29:15;101324.53;;;30.22;nan
23223;BME280;11780;13.904;100.620;2023-12-07T00:31:46;101323.41;;;30.23;nan
23223;BME280;11780;13.904;100.620;2023-12-07T00:34:17;101330.06;;;30.22;nan
23223;BME280;11780;13.904;100.620;2023-12-07T00:36:47;101331.41;;;30.25;nan
23223;BME280;11780;13.904;100.620;2023-12-07T00:39:18;101330.56;;;30.25;nan
23223;BME280;11780;13.904;100.620;2023-12-07T00:41:48;101329.97;;;30.28;nan
23223;BME280;11780;13.904;100.620;2023-12-07T00:44:19;101344.06;;;30.26;nan
23223;BME280;11780;13.904;100.620;2023-12-07T00:46:50;101350.41;;;30.27;nan
23223;BME280;11780;13.904;100.620;2023-12-07T00:49:20;101361.44;;;30.27;nan
23223;BME280;11780;13.904;100.620;2023-12-07T00:51:51;101358.69;;;30.27;nan
23223;BME280;11780;13.904;100.620;2023-12-07T00:54:22;101362.03;;;30.23;nan
23223;BME280;11780;13.904;100.620;2023-12-07T00:56:52;101359.50;;;30.27;nan
23223;BME280;11780;13.904;100.620;2023-12-07T00:59:23;101363.06;;;30.28;nan
23223;BME280;11780;13.904;100.620;2023-12-07T01:01:55;101377.19;;;30.26;nan
23223;BME280;11780;13.904;100.620;2023-12-07T01:04:25;101377.19;;;30.26;nan
23223;BME280;11780;13.904;100.620;2023-12-07T01:06:56;101377.19;;;30.26;nan
23223;BME280;11780;13.904;100.620;2023-12-07T01:09:27;101382.72;;;30.26;nan
23223;BME280;11780;13.904;100.620;2023-12-07T01:11:57;101384.94;;;30.24;nan
23223;BME280;11780;13.904;100.620;2023-12-07T01:14:31;101389.34;;;30.25;nan
23223;BME280;11780;13.904;100.620;2023-12-07T01:17:02;101386.34;;;30.21;nan
23223;BME280;11780;13.904;100.620;2023-12-07T01:19:32;101395.78;;;30.20;nan
23223;BME280;11780;13.904;100.620;2023-12-07T01:22:04;101392.72;;;30.22;nan
23223;BME280;11780;13.904;100.620;2023-12-07T01:24:34;101399.34;;;30.21;nan
23223;BME280;11780;13.904;100.620;2023-12-07T01:27:05;101394.34;;;30.23;nan
23223;BME280;11780;13.904;100.620;2023-12-07T01:29:36;101397.72;;;30.20;nan
23223;BME280;11780;13.904;100.620;2023-12-07T01:32:06;101401.31;;;30.20;nan
23223;BME280;11780;13.904;100.620;2023-12-07T01:34:37;101394.94;;;30.20;nan
23223;BME280;11780;13.904;100.620;2023-12-07T01:37:08;101407.94;;;30.19;nan
23223;BME280;11780;13.904;100.620;2023-12-07T01:39:38;101407.94;;;30.19;nan
23223;BME280;11780;13.904;100.620;2023-12-07T01:42:09;101407.94;;;30.19;nan
23223;BME280;11780;13.904;100.620;2023-12-07T01:44:41;101400.16;;;30.21;nan
23223;BME280;11780;13.904;100.620;2023-12-07T01:47:12;101396.91;;;30.19;nan
23223;BME280;11780;13.904;100.620;2023-12-07T01:49:42;101403.75;;;30.22;nan
23223;BME280;11780;13.904;100.620;2023-12-07T01:52:13;101412.56;;;30.24;nan
23223;BME280;11780;13.904;100.620;2023-12-07T01:54:44;101415.31;;;30.24;nan
23223;BME280;11780;13.904;100.620;2023-12-07T01:57:15;101415.31;;;30.24;nan
23223;BME280;11780;13.904;100.620;2023-12-07T01:59:46;101419.19;;;30.23;nan
23223;BME280;11780;13.904;100.620;2023-12-07T02:02:17;101429.09;;;30.24;nan
23223;BME280;11780;13.904;100.620;2023-12-07T02:04:47;101433.19;;;30.27;nan
23223;BME280;11780;13.904;100.620;2023-12-07T02:07:19;101428.00;;;30.25;nan
23223;BME280;11780;13.904;100.620;2023-12-07T02:09:50;101426.63;;;30.22;nan
23223;BME280;11780;13.904;100.620;2023-12-07T02:12:21;101428.00;;;30.25;nan
23223;BME280;11780;13.904;100.620;2023-12-07T02:14:52;101418.88;;;30.25;nan
23223;BME280;11780;13.904;100.620;2023-12-07T02:23:01;101427.47;;;30.23;nan
23223;BME280;11780;13.904;100.620;2023-12-07T02:28:31;101432.16;;;30.22;nan
23223;BME280;11780;13.904;100.620;2023-12-07T02:31:01;101439.31;;;30.23;nan
23223;BME280;11780;13.904;100.620;2023-12-07T02:33:34;101431.56;;;30.26;nan
23223;BME280;11780;13.904;100.620;2023-12-07T02:36:05;101426.03;;;30.26;nan
23223;BME280;11780;13.904;100.620;2023-12-07T02:38:37;101435.66;;;30.28;nan
23223;BME280;11780;13.904;100.620;2023-12-07T02:41:09;101428.50;;;30.27;nan
23223;BME280;11780;13.904;100.620;2023-12-07T02:43:41;101422.97;;;30.27;nan
23223;BME280;11780;13.904;100.620;2023-12-07T02:46:11;101414.19;;;30.25;nan
23223;BME280;11780;13.904;100.620;2023-12-07T02:48:42;101415.84;;;30.26;nan
23223;BME280;11780;13.904;100.620;2023-12-07T02:51:14;101415.19;;;30.29;nan
23223;BME280;11780;13.904;100.620;2023-12-07T02:53:45;101414.72;;;30.27;nan
23223;BME280;11780;13.904;100.620;2023-12-07T02:56:15;101411.63;;;30.29;nan
23223;BME280;11780;13.904;100.620;2023-12-07T02:58:46;101412.44;;;30.29;nan
23223;BME280;11780;13.904;100.620;2023-12-07T03:01:16;101407.22;;;30.28;nan
23223;BME280;11780;13.904;100.620;2023-12-07T03:03:47;101412.44;;;30.29;nan
23223;BME280;11780;13.904;100.620;2023-12-07T03:06:17;101409.69;;;30.29;nan
23223;BME280;11780;13.904;100.620;2023-12-07T03:08:49;101408.06;;;30.28;nan
23223;BME280;11780;13.904;100.620;2023-12-07T03:11:21;101408.06;;;30.28;nan
23223;BME280;11780;13.904;100.620;2023-12-07T03:13:52;101409.06;;;30.32;nan
23223;BME280;11780;13.904;100.620;2023-12-07T03:16:23;101407.75;;;30.30;nan
23223;BME280;11780;13.904;100.620;2023-12-07T03:18:53;101391.72;;;30.32;nan
23223;BME280;11780;13.904;100.620;2023-12-07T03:21:24;101400.00;;;30.32;nan
23223;BME280;11780;13.904;100.620;2023-12-07T03:23:54;101402.44;;;30.33;nan
23223;BME280;11780;13.904;100.620;2023-12-07T03:26:25;101396.63;;;30.35;nan
23223;BME280;11780;13.904;100.620;2023-12-07T03:28:56;101390.78;;;30.36;nan
23223;BME280;11780;13.904;100.620;2023-12-07T03:31:27;101396.00;;;30.38;nan
23223;BME280;11780;13.904;100.620;2023-12-07T03:33:58;101391.00;;;30.40;nan
23223;BME280;11780;13.904;100.620;2023-12-07T03:36:31;101393.97;;;30.44;nan
23223;BME280;11780;13.904;100.620;2023-12-07T03:39:01;101386.81;;;30.43;nan
23223;BME280;11780;13.904;100.620;2023-12-07T03:41:33;101391.22;;;30.44;nan
23223;BME280;11780;13.904;100.620;2023-12-07T03:44:04;101386.19;;;30.46;nan
23223;BME280;11780;13.904;100.620;2023-12-07T03:46:34;101386.19;;;30.46;nan
23223;BME280;11780;13.904;100.620;2023-12-07T03:49:05;101371.06;;;30.43;nan
23223;BME280;11780;13.904;100.620;2023-12-07T03:51:37;101377.09;;;30.45;nan
23223;BME280;11780;13.904;100.620;2023-12-07T03:54:08;101369.63;;;30.46;nan
23223;BME280;11780;13.904;100.620;2023-12-07T03:56:39;101370.16;;;30.48;nan
23223;BME280;11780;13.904;100.620;2023-12-07T03:59:11;101366.56;;;30.47;nan
23223;BME280;11780;13.904;100.620;2023-12-07T04:01:42;101367.69;;;30.46;nan
23223;BME280;11780;13.904;100.620;2023-12-07T04:04:12;101365.13;;;30.50;nan
23223;BME280;11780;13.904;100.620;2023-12-07T04:06:43;101365.66;;;30.52;nan
23223;BME280;11780;13.904;100.620;2023-12-07T04:09:15;101373.13;;;30.51;nan
23223;BME280;11780;13.904;100.620;2023-12-07T04:11:45;101361.25;;;30.51;nan
23223;BME280;11780;13.904;100.620;2023-12-07T04:14:16;101372.31;;;30.51;nan
23223;BME280;11780;13.904;100.620;2023-12-07T04:16:47;101361.78;;;30.53;nan
23223;BME280;11780;13.904;100.620;2023-12-07T04:19:17;101353.50;;;30.53;nan
23223;BME280;11780;13.904;100.620;2023-12-07T04:21:48;101347.97;;;30.53;nan
23223;BME280;11780;13.904;100.620;2023-12-07T04:24:19;101352.91;;;30.56;nan
23223;BME280;11780;13.904;100.620;2023-12-07T04:26:49;101356.47;;;30.57;nan
23223;BME280;11780;13.904;100.620;2023-12-07T04:29:20;101345.44;;;30.57;nan
23223;BME280;11780;13.904;100.620;2023-12-07T04:31:50;101343.50;;;30.57;nan
23223;BME280;11780;13.904;100.620;2023-12-07T04:34:21;101323.34;;;30.57;nan
23223;BME280;11780;13.904;100.620;2023-12-07T04:36:52;101322.22;;;30.58;nan
23223;BME280;11780;13.904;100.620;2023-12-07T04:39:22;101319.47;;;30.58;nan
23223;BME280;11780;13.904;100.620;2023-12-07T04:41:53;101324.69;;;30.59;nan
23223;BME280;11780;13.904;100.620;2023-12-07T04:44:24;101314.44;;;30.60;nan
23223;BME280;11780;13.904;100.620;2023-12-07T04:46:55;101316.41;;;30.59;nan
23223;BME280;11780;13.904;100.620;2023-12-07T04:49:26;101314.97;;;30.62;nan
23223;BME280;11780;13.904;100.620;2023-12-07T04:51:57;101317.72;;;30.62;nan
23223;BME280;11780;13.904;100.620;2023-12-07T04:54:28;101307.50;;;30.62;nan
23223;BME280;11780;13.904;100.620;2023-12-07T04:56:59;101300.03;;;30.63;nan
23223;BME280;11780;13.904;100.620;2023-12-07T04:59:32;101294.19;;;30.64;nan
23223;BME280;11780;13.904;100.620;2023-12-07T05:02:04;101296.16;;;30.64;nan
23223;BME280;11780;13.904;100.620;2023-12-07T05:04:35;101288.66;;;30.64;nan
23223;BME280;11780;13.904;100.620;2023-12-07T05:07:05;101288.38;;;30.66;nan
23223;BME280;11780;13.904;100.620;2023-12-07T05:09:36;101283.66;;;30.66;nan
23223;BME280;11780;13.904;100.620;2023-12-07T05:12:08;101271.81;;;30.66;nan
23223;BME280;11780;13.904;100.620;2023-12-07T05:14:39;101266.78;;;30.68;nan
23223;BME280;11780;13.904;100.620;2023-12-07T05:17:09;101273.63;;;30.71;nan
23223;BME280;11780;13.904;100.620;2023-12-07T05:19:40;101262.28;;;30.72;nan
23223;BME280;11780;13.904;100.620;2023-12-07T05:22:11;101258.72;;;30.72;nan
23223;BME280;11780;13.904;100.620;2023-12-07T05:24:41;101244.06;;;30.71;nan
23223;BME280;11780;13.904;100.620;2023-12-07T05:27:12;101244.56;;;30.73;nan
23223;BME280;11780;13.904;100.620;2023-12-07T05:29:43;101241.00;;;30.73;nan
23223;BME280;11780;13.904;100.620;2023-12-07T05:32:14;101232.41;;;30.74;nan
23223;BME280;11780;13.904;100.620;2023-12-07T05:34:44;101227.22;;;30.73;nan
23223;BME280;11780;13.904;100.620;2023-12-07T05:37:15;101225.75;;;30.75;nan
23223;BME280;11780;13.904;100.620;2023-12-07T05:39:46;101215.03;;;30.74;nan
23223;BME280;11780;13.904;100.620;2023-12-07T05:42:16;101211.16;;;30.75;nan
23223;BME280;11780;13.904;100.620;2023-12-07T05:44:47;101203.34;;;30.77;nan
23223;BME280;11780;13.904;100.620;2023-12-07T05:47:18;101191.81;;;30.75;nan
23223;BME280;11780;13.904;100.620;2023-12-07T05:49:48;101188.72;;;30.76;nan
23223;BME280;11780;13.904;100.620;2023-12-07T05:52:19;101185.97;;;30.76;nan
23223;BME280;11780;13.904;100.620;2023-12-07T05:54:50;101178.81;;;30.75;nan
23223;BME280;11780;13.904;100.620;2023-12-07T05:57:20;101175.44;;;30.78;nan
23223;BME280;11780;13.904;100.620;2023-12-07T05:59:51;101171.53;;;30.79;nan
23223;BME280;11780;13.904;100.620;2023-12-07T06:02:22;101166.53;;;30.81;nan
23223;BME280;11780;13.904;100.620;2023-12-07T06:04:53;101154.34;;;30.82;nan
23223;BME280;11780;13.904;100.620;2023-12-07T06:07:24;101146.88;;;30.83;nan
23223;BME280;11780;13.904;100.620;2023-12-07T06:09:55;101147.19;;;30.81;nan
23223;BME280;11780;13.904;100.620;2023-12-07T06:12:26;101146.06;;;30.82;nan
23223;BME280;11780;13.904;100.620;2023-12-07T06:14:58;101146.88;;;30.83;nan
23223;BME280;11780;13.904;100.620;2023-12-07T06:17:28;101142.47;;;30.82;nan
23223;BME280;11780;13.904;100.620;2023-12-07T06:19:59;101124.75;;;30.83;nan
23223;BME280;11780;13.904;100.620;2023-12-07T06:22:30;101118.13;;;30.84;nan
23223;BME280;11780;13.904;100.620;2023-12-07T06:25:01;101121.69;;;30.84;nan
23223;BME280;11780;13.904;100.620;2023-12-07T06:27:31;101103.47;;;30.83;nan
23223;BME280;11780;13.904;100.620;2023-12-07T06:30:05;101107.88;;;30.84;nan
23223;BME280;11780;13.904;100.620;2023-12-07T06:32:36;101105.94;;;30.85;nan
23223;BME280;11780;13.904;100.620;2023-12-07T06:35:07;101104.31;;;30.84;nan
23223;BME280;11780;13.904;100.620;2023-12-07T06:37:38;101107.56;;;30.86;nan
23223;BME280;11780;13.904;100.620;2023-12-07T06:40:10;101096.53;;;30.86;nan
23223;BME280;11780;13.904;100.620;2023-12-07T06:42:41;101092.63;;;30.87;nan
23223;BME280;11780;13.904;100.620;2023-12-07T06:45:12;101094.28;;;30.88;nan
23223;BME280;11780;13.904;100.620;2023-12-07T06:47:44;101090.03;;;30.91;nan
23223;BME280;11780;13.904;100.620;2023-12-07T06:50:14;101087.63;;;30.89;nan
23223;BME280;11780;13.904;100.620;2023-12-07T06:52:45;101087.28;;;30.91;nan
23223;BME280;11780;13.904;100.620;2023-12-07T06:55:16;101084.84;;;30.89;nan
23223;BME280;11780;13.904;100.620;2023-12-07T06:57:46;101085.66;;;30.90;nan
23223;BME280;11780;13.904;100.620;2023-12-07T07:00:17;101079.00;;;30.91;nan
23223;BME280;11780;13.904;100.620;2023-12-07T07:02:50;101085.84;;;30.93;nan
23223;BME280;11780;13.904;100.620;2023-12-07T07:05:20;101078.66;;;30.92;nan
23223;BME280;11780;13.904;100.620;2023-12-07T07:07:51;101075.91;;;30.92;nan
23223;BME280;11780;13.904;100.620;2023-12-07T07:10:22;101072.03;;;30.93;nan
23223;BME280;11780;13.904;100.620;2023-12-07T07:12:53;101070.09;;;30.94;nan
23223;BME280;11780;13.904;100.620;2023-12-07T07:15:23;101078.38;;;30.94;nan
23223;BME280;11780;13.904;100.620;2023-12-07T07:17:55;101068.97;;;30.95;nan
23223;BME280;11780;13.904;100.620;2023-12-07T07:20:26;101067.81;;;30.96;nan
23223;BME280;11780;13.904;100.620;2023-12-07T07:22:56;101069.47;;;30.97;nan
23223;BME280;11780;13.904;100.620;2023-12-07T07:25:27;101068.63;;;30.96;nan
23223;BME280;11780;13.904;100.620;2023-12-07T07:27:58;101076.13;;;30.96;nan
23223;BME280;11780;13.904;100.620;2023-12-07T07:30:29;101060.34;;;30.96;nan
23223;BME280;11780;13.904;100.620;2023-12-07T07:32:59;101056.44;;;30.97;nan
23223;BME280;11780;13.904;100.620;2023-12-07T07:35:31;101052.56;;;30.98;nan
23223;BME280;11780;13.904;100.620;2023-12-07T07:38:01;101048.16;;;30.97;nan
23223;BME280;11780;13.904;100.620;2023-12-07T07:40:32;101043.47;;;30.98;nan
23223;BME280;11780;13.904;100.620;2023-12-07T07:43:03;101043.13;;;30.99;nan
23223;BME280;11780;13.904;100.620;2023-12-07T07:45:33;101042.63;;;30.97;nan
23223;BME280;11780;13.904;100.620;2023-12-07T07:48:05;101044.28;;;30.98;nan
23223;BME280;11780;13.904;100.620;2023-12-07T07:50:35;101035.97;;;30.98;nan
23223;BME280;11780;13.904;100.620;2023-12-07T07:53:06;101031.59;;;30.97;nan
23223;BME280;11780;13.904;100.620;2023-12-07T07:55:37;101037.94;;;30.98;nan
23223;BME280;11780;13.904;100.620;2023-12-07T07:58:07;101033.22;;;30.98;nan
23223;BME280;11780;13.904;100.620;2023-12-07T08:00:38;101034.84;;;30.99;nan
23223;BME280;11780;13.904;100.620;2023-12-07T08:03:09;101027.69;;;30.98;nan
23223;BME280;11780;13.904;100.620;2023-12-07T08:05:39;101019.06;;;31.00;nan
23223;BME280;11780;13.904;100.620;2023-12-07T08:08:10;101028.19;;;31.01;nan
23223;BME280;11780;13.904;100.620;2023-12-07T08:10:41;101025.09;;;31.02;nan
23223;BME280;11780;13.904;100.620;2023-12-07T08:13:21;101024.31;;;31.02;nan
23223;BME280;11780;13.904;100.620;2023-12-07T08:15:51;101024.81;;;31.04;nan
23223;BME280;11780;13.904;100.620;2023-12-07T08:18:24;101032.75;;;31.05;nan
23223;BME280;11780;13.904;100.620;2023-12-07T08:20:57;101022.53;;;31.06;nan
23223;BME280;11780;13.904;100.620;2023-12-07T08:23:28;101021.72;;;31.05;nan
23223;BME280;11780;13.904;100.620;2023-12-07T08:25:58;101019.44;;;31.07;nan
23223;BME280;11780;13.904;100.620;2023-12-07T08:28:29;101019.44;;;31.07;nan
23223;BME280;11780;13.904;100.620;2023-12-07T08:31:00;101016.19;;;31.05;nan
23223;BME280;11780;13.904;100.620;2023-12-07T08:33:31;101009.03;;;31.04;nan
23223;BME280;11780;13.904;100.620;2023-12-07T08:36:02;101006.25;;;31.04;nan
23223;BME280;11780;13.904;100.620;2023-12-07T08:38:33;101006.25;;;31.04;nan
23223;BME280;11780;13.904;100.620;2023-12-07T08:41:03;100996.34;;;31.03;nan
23223;BME280;11780;13.904;100.620;2023-12-07T08:43:34;101007.91;;;31.05;nan
23223;BME280;11780;13.904;100.620;2023-12-07T08:46:05;100997.97;;;31.04;nan
23223;BME280;11780;13.904;100.620;2023-12-07T08:48:37;101011.50;;;31.06;nan
23223;BME280;11780;13.904;100.620;2023-12-07T08:51:10;101014.72;;;31.08;nan
23223;BME280;11780;13.904;100.620;2023-12-07T08:53:40;101018.31;;;31.08;nan
23223;BME280;11780;13.904;100.620;2023-12-07T08:56:11;101013.09;;;31.07;nan
23223;BME280;11780;13.904;100.620;2023-12-07T08:58:43;101019.13;;;31.09;nan
23223;BME280;11780;13.904;100.620;2023-12-07T09:01:14;101018.31;;;31.08;nan
23223;BME280;11780;13.904;100.620;2023-12-07T09:03:52;101014.72;;;31.08;nan
23223;BME280;11780;13.904;100.620;2023-12-07T09:06:23;101016.69;;;31.07;nan
23223;BME280;11780;13.904;100.620;2023-12-07T09:08:53;101010.31;;;31.07;nan
23223;BME280;11780;13.904;100.620;2023-12-07T09:11:25;101013.59;;;31.09;nan
23223;BME280;11780;13.904;100.620;2023-12-07T09:13:56;101010.81;;;31.09;nan
23223;BME280;11780;13.904;100.620;2023-12-07T09:16:27;101016.34;;;31.09;nan
23223;BME280;11780;13.904;100.620;2023-12-07T09:18:57;101021.06;;;31.08;nan
23223;BME280;11780;13.904;100.620;2023-12-07T09:21:28;101024.66;;;31.09;nan
23223;BME280;11780;13.904;100.620;2023-12-07T09:23:59;101030.16;;;31.09;nan
23223;BME280;11780;13.904;100.620;2023-12-07T09:26:29;101028.88;;;31.06;nan
23223;BME280;11780;13.904;100.620;2023-12-07T09:29:00;101026.59;;;31.08;nan
23223;BME280;11780;13.904;100.620;2023-12-07T09:31:31;101028.88;;;31.06;nan
23223;BME280;11780;13.904;100.620;2023-12-07T09:34:01;101033.59;;;31.06;nan
23223;BME280;11780;13.904;100.620;2023-12-07T09:36:39;101031.81;;;31.10;nan
23223;BME280;11780;13.904;100.620;2023-12-07T09:39:09;101036.53;;;31.09;nan
23223;BME280;11780;13.904;100.620;2023-12-07T09:41:41;101041.72;;;31.11;nan
23223;BME280;11780;13.904;100.620;2023-12-07T09:44:14;101037.81;;;31.12;nan
23223;BME280;11780;13.904;100.620;2023-12-07T09:46:45;101038.47;;;31.09;nan
23223;BME280;11780;13.904;100.620;2023-12-07T09:49:16;101040.91;;;31.10;nan
23223;BME280;11780;13.904;100.620;2023-12-07T09:51:48;101039.28;;;31.09;nan
23223;BME280;11780;13.904;100.620;2023-12-07T09:54:20;101038.78;;;31.07;nan
23223;BME280;11780;13.904;100.620;2023-12-07T09:56:52;101043.97;;;31.09;nan
23223;BME280;11780;13.904;100.620;2023-12-07T09:59:24;101051.97;;;31.10;nan
23223;BME280;11780;13.904;100.620;2023-12-07T10:01:55;101049.50;;;31.09;nan
23223;BME280;11780;13.904;100.620;2023-12-07T10:04:26;101056.16;;;31.08;nan
23223;BME280;11780;13.904;100.620;2023-12-07T10:06:57;101063.31;;;31.09;nan
23223;BME280;11780;13.904;100.620;2023-12-07T10:09:27;101060.56;;;31.09;nan
23223;BME280;11780;13.904;100.620;2023-12-07T10:12:04;101066.09;;;31.09;nan
23223;BME280;11780;13.904;100.620;2023-12-07T10:14:35;101054.88;;;31.05;nan
23223;BME280;11780;13.904;100.620;2023-12-07T10:17:06;101068.69;;;31.05;nan
23223;BME280;11780;13.904;100.620;2023-12-07T10:19:36;101080.56;;;31.06;nan
23223;BME280;11780;13.904;100.620;2023-12-07T10:22:14;101085.75;;;31.07;nan
23223;BME280;11780;13.904;100.620;2023-12-07T10:24:47;101074.19;;;31.05;nan
23223;BME280;11780;13.904;100.620;2023-12-07T10:27:18;101084.13;;;31.06;nan
23223;BME280;11780;13.904;100.620;2023-12-07T10:29:49;101082.50;;;31.05;nan
23223;BME280;11780;13.904;100.620;2023-12-07T10:32:21;101090.28;;;31.03;nan
23223;BME280;11780;13.904;100.620;2023-12-07T10:34:53;101092.41;;;31.06;nan
23223;BME280;11780;13.904;100.620;2023-12-07T10:37:27;101099.41;;;31.04;nan
23223;BME280;11780;13.904;100.620;2023-12-07T10:39:57;101102.97;;;31.04;nan
23223;BME280;11780;13.904;100.620;2023-12-07T10:42:32;101110.75;;;31.02;nan
23223;BME280;11780;13.904;100.620;2023-12-07T10:45:06;101108.81;;;31.03;nan
23223;BME280;11780;13.904;100.620;2023-12-07T10:47:38;101110.75;;;31.02;nan
23223;BME280;11780;13.904;100.620;2023-12-07T10:50:10;101115.75;;;31.00;nan
23223;BME280;11780;13.904;100.620;2023-12-07T10:52:47;101117.41;;;31.01;nan
23223;BME280;11780;13.904;100.620;2023-12-07T10:55:28;101123.25;;;30.99;nan
23223;BME280;11780;13.904;100.620;2023-12-07T10:57:59;101127.16;;;30.98;nan
23223;BME280;11780;13.904;100.620;2023-12-07T11:00:31;101128.28;;;30.97;nan
23223;BME280;11780;13.904;100.620;2023-12-07T11:03:08;101136.56;;;30.97;nan
23223;BME280;11780;13.904;100.620;2023-12-07T11:05:39;101139.81;;;30.99;nan
23223;BME280;11780;13.904;100.620;2023-12-07T11:13:37;101149.25;;;30.98;nan
23223;BME280;11780;13.904;100.620;2023-12-07T11:16:09;101157.03;;;30.96;nan
23223;BME280;11780;13.904;100.620;2023-12-07T11:18:40;101158.66;;;30.97;nan
23223;BME280;11780;13.904;100.620;2023-12-07T11:21:10;101164.00;;;30.94;nan
23223;BME280;11780;13.904;100.620;2023-12-07T11:23:41;101161.75;;;30.96;nan
23223;BME280;11780;13.904;100.620;2023-12-07T11:26:12;101166.16;;;30.97;nan
23223;BME280;11780;13.904;100.620;2023-12-07T11:28:43;101164.81;;;30.94;nan
23223;BME280;11780;13.904;100.620;2023-12-07T11:31:13;101182.22;;;30.95;nan
23223;BME280;11780;13.904;100.620;2023-12-07T11:33:45;101184.16;;;30.94;nan
23223;BME280;11780;13.904;100.620;2023-12-07T11:36:17;101187.75;;;30.95;nan
23223;BME280;11780;13.904;100.620;2023-12-07T11:41:51;101200.22;;;30.92;nan
23223;BME280;11780;13.904;100.620;2023-12-07T11:44:34;101196.31;;;30.93;nan
23223;BME280;11780;13.904;100.620;2023-12-07T11:47:05;101202.50;;;30.90;nan
23223;BME280;11780;13.904;100.620;2023-12-07T11:49:36;101211.25;;;30.92;nan
23223;BME280;11780;13.904;100.620;2023-12-07T11:52:19;101204.94;;;30.92;nan
23223;BME280;11780;13.904;100.620;2023-12-07T11:54:50;101212.38;;;30.91;nan
23223;BME280;11780;13.904;100.620;2023-12-07T11:57:21;101215.47;;;30.90;nan
23223;BME280;11780;13.904;100.620;2023-12-07T11:59:52;101213.53;;;30.90;nan
23223;BME280;11780;13.904;100.620;2023-12-07T12:02:23;101217.44;;;30.89;nan
23223;BME280;11780;13.904;100.620;2023-12-07T12:04:54;101211.91;;;30.89;nan
23223;BME280;11780;13.904;100.620;2023-12-07T12:07:24;101229.28;;;30.90;nan
23223;BME280;11780;13.904;100.620;2023-12-07T12:09:56;101228.50;;;30.89;nan
23223;BME280;11780;13.904;100.620;2023-12-07T12:12:29;101234.00;;;30.89;nan
23223;BME280;11780;13.904;100.620;2023-12-07T12:15:03;101236.25;;;30.87;nan
23223;BME280;11780;13.904;100.620;2023-12-07T12:17:35;101236.25;;;30.87;nan
23223;BME280;11780;13.904;100.620;2023-12-07T12:20:06;101244.22;;;30.89;nan
23223;BME280;11780;13.904;100.620;2023-12-07T12:22:37;101245.69;;;30.86;nan
23223;BME280;11780;13.904;100.620;2023-12-07T12:25:08;101256.72;;;30.86;nan
23223;BME280;11780;13.904;100.620;2023-12-07T12:27:39;101253.97;;;30.86;nan
23223;BME280;11780;13.904;100.620;2023-12-07T12:30:11;101256.72;;;30.86;nan
23223;BME280;11780;13.904;100.620;2023-12-07T12:32:47;101264.69;;;30.88;nan
23223;BME280;11780;13.904;100.620;2023-12-07T12:35:18;101270.53;;;30.86;nan
23223;BME280;11780;13.904;100.620;2023-12-07T12:37:49;101266.13;;;30.85;nan
23223;BME280;11780;13.904;100.620;2023-12-07T12:40:21;101273.28;;;30.86;nan
23223;BME280;11780;13.904;100.620;2023-12-07T12:42:52;101285.97;;;30.87;nan
23223;BME280;11780;13.904;100.620;2023-12-07T12:45:24;101289.03;;;30.86;nan
23223;BME280;11780;13.904;100.620;2023-12-07T12:47:55;101293.44;;;30.87;nan
23223;BME280;11780;13.904;100.620;2023-12-07T12:50:38;101294.78;;;30.89;nan
23223;BME280;11780;13.904;100.620;2023-12-07T12:53:10;101305.59;;;30.86;nan
23223;BME280;11780;13.904;100.620;2023-12-07T12:55:42;101302.84;;;30.86;nan
23223;BME280;11780;13.904;100.620;2023-12-07T12:58:14;101309.19;;;30.86;nan
23223;BME280;11780;13.904;100.620;2023-12-07T13:00:47;101304.81;;;30.85;nan
23223;BME280;11780;13.904;100.620;2023-12-07T13:03:18;101307.88;;;30.83;nan
23223;BME280;11780;13.904;100.620;2023-12-07T13:05:48;101313.72;;;30.82;nan
23223;BME280;11780;13.904;100.620;2023-12-07T13:08:19;101324.25;;;30.80;nan
23223;BME280;11780;13.904;100.620;2023-12-07T13:10:50;101324.25;;;30.80;nan
23223;BME280;11780;13.904;100.620;2023-12-07T13:13:21;101328.03;;;30.84;nan
23223;BME280;11780;13.904;100.620;2023-12-07T13:15:51;101329.75;;;30.80;nan
23223;BME280;11780;13.904;100.620;2023-12-07T13:18:22;101333.97;;;30.77;nan
23223;BME280;11780;13.904;100.620;2023-12-07T13:20:53;101332.84;;;30.78;nan
23223;BME280;11780;13.904;100.620;2023-12-07T13:23:23;101325.69;;;30.77;nan
23223;BME280;11780;13.904;100.620;2023-12-07T13:25:54;101333.13;;;30.77;nan
23223;BME280;11780;13.904;100.620;2023-12-07T13:28:25;101337.75;;;30.81;nan